Latest Weather Observations for Century Mine

IDQ60801

Issued at 7:35 pm EST Thursday 24 April 2014 (issued every 30 minutes, with the page automatically refreshed every 10 minutes)

About weather observations | Map of weather stations | Latest weather observations for QLD | Other Formats
Station Details ID: 029167 Name: CENTURY MINE Lat: -18.76 Lon: 138.71 Height: 126.8 m
Data from the previous 72 hours. | See also: Recent months at Century Mine
Date/Time
EST
Temp
°C
App
Temp
°C
Dew
Point
Rel
Hum
%
Delta-T
°C
Wind Press
QNH
hPa
Press
MSL
hPa
Rain
since 9 am
mm
Dir
 
Spd
km/h
Gust
km/h
Spd
kts
Gust
kts
24/07:30pm 27.3 28.3 19.4 62 5.1 NNE 13 20 7 11 1010.6 - 0.0
24/07:00pm 27.8 28.3 19.3 60 5.5 NNE 15 24 8 13 1010.0 - 0.0
24/06:30pm 28.9 28.3 18.4 53 6.8 NNE 19 26 10 14 1009.7 - 0.0
24/06:00pm 30.6 30.2 16.2 41 9.0 NE 13 24 7 13 1009.3 1008.6 0.0
24/05:30pm 30.7 30.5 16.7 43 8.8 ENE 13 19 7 10 1009.2 - 0.0
24/05:00pm 31.3 30.3 15.7 39 9.7 ENE 15 20 8 11 1009.0 - 0.0
24/04:30pm 31.7 30.7 15.6 37 10.0 E 15 24 8 13 1008.9 - 0.0
24/04:00pm 31.5 30.1 15.5 38 10.0 ENE 17 26 9 14 1009.0 - 0.0
24/03:30pm 31.6 29.4 14.3 35 10.6 E 19 28 10 15 1009.1 - 0.0
24/03:00pm 32.6 31.4 15.1 34 10.9 E 15 28 8 15 1009.0 1008.3 0.0
24/02:30pm 33.3 31.8 16.2 36 10.8 ENE 19 30 10 16 1009.0 - 0.0
24/02:00pm 33.0 32.3 16.4 37 10.5 E 15 24 8 13 1009.6 - 0.0
24/01:30pm 32.7 32.2 16.9 38 10.1 E 15 24 8 13 1010.1 - 0.0
24/01:00pm 31.9 31.3 16.6 39 9.7 E 15 22 8 12 1010.6 - 0.0
24/12:30pm 32.1 31.0 17.2 41 9.5 ENE 19 30 10 16 1011.2 - 0.0
24/12:00pm 32.0 32.4 18.9 45 8.6 ESE 15 20 8 11 1011.7 1011.1 0.0
24/11:30am 30.8 30.7 17.8 45 8.3 E 15 22 8 12 1012.4 - 0.0
24/11:00am 29.9 30.0 18.3 49 7.5 E 15 20 8 11 1013.0 - 0.0
24/10:30am 29.2 30.8 19.2 54 6.5 E 9 13 5 7 1013.4 - 0.0
24/10:00am 27.2 28.4 19.0 61 5.3 ESE 11 17 6 9 1013.5 - 0.0
24/09:30am 26.2 27.7 18.8 63 4.8 E 9 15 5 8 1013.5 - 0.0
24/09:00am 25.8 27.2 18.7 65 4.5 ESE 9 13 5 7 1013.3 1012.6 0.0
24/08:30am 25.4 27.0 19.1 68 4.1 ESE 9 13 5 7 1012.7 - 0.0
24/08:00am 24.9 27.1 19.3 71 3.6 E 6 9 3 5 1012.4 - 0.0
24/07:30am 23.1 26.4 19.1 78 2.6 CALM 0 0 0 0 1012.2 - 0.0
24/07:00am 22.6 25.0 18.8 79 2.4 S 4 7 2 4 1011.8 - 0.0
24/06:30am 22.4 24.9 19.0 81 2.2 SSE 4 7 2 4 1011.5 - 0.0
24/06:00am 22.1 24.9 18.9 82 2.0 S 2 9 1 5 1011.1 1010.4 0.0
24/05:30am 21.6 24.7 18.6 83 1.9 CALM 0 6 0 3 1010.8 - 0.0
24/05:00am 21.6 24.6 18.4 82 2.0 CALM 0 0 0 0 1010.5 - 0.0
24/04:30am 21.9 23.7 18.3 80 2.3 SE 6 7 3 4 1010.3 - 0.0
24/04:00am 22.2 24.4 18.4 79 2.4 S 4 7 2 4 1010.3 - 0.0
24/03:30am 22.5 25.5 18.5 78 2.5 CALM 0 0 0 0 1010.3 - 0.0
24/03:00am 22.6 25.7 18.6 78 2.5 CALM 0 0 0 0 1010.5 1009.8 0.0
24/02:30am 22.5 24.9 18.7 79 2.4 SE 4 7 2 4 1010.9 - 0.0
24/02:00am 22.3 25.3 18.5 79 2.4 CALM 0 0 0 0 1011.2 - 0.0
24/01:30am 22.3 25.2 18.3 78 2.5 CALM 0 0 0 0 1011.6 - 0.0
24/01:00am 22.5 25.4 18.3 77 2.6 CALM 0 0 0 0 1012.0 - 0.0
24/12:30am 22.5 25.4 18.3 77 2.6 CALM 0 2 0 1 1012.2 - 0.0
24/12:00am 22.6 25.7 18.6 78 2.5 E 0 0 0 0 1012.6 1011.9 0.0
 
Date/Time
EST
Temp
°C
App
Temp
°C
Dew
Point
Rel
Hum
%
Delta-T
°C
Wind Press
QNH
hPa
Press
MSL
hPa
Rain
since 9 am
mm
Dir
 
Spd
km/h
Gust
km/h
Spd
kts
Gust
kts
23/11:30pm 22.6 24.5 18.6 78 2.5 ESE 6 9 3 5 1013.0 - 0.0
23/11:00pm 22.7 24.5 18.7 78 2.5 ENE 7 9 4 5 1013.2 - 0.0
23/10:30pm 22.9 24.1 18.2 75 3.0 E 9 11 5 6 1013.4 - 0.0
23/10:00pm 23.0 25.1 18.1 74 3.1 E 4 7 2 4 1013.5 - 0.0
23/09:30pm 23.1 24.2 18.0 73 3.2 E 9 11 5 6 1013.4 - 0.0
23/09:00pm 23.3 24.5 18.2 73 3.2 E 9 15 5 8 1013.5 1012.8 0.0
23/08:30pm 23.3 24.2 18.4 74 3.1 ENE 11 19 6 10 1013.3 - 0.0
23/08:00pm 23.8 24.2 18.2 71 3.5 ENE 13 19 7 10 1012.9 - 0.0
23/07:30pm 24.4 24.8 18.1 68 4.0 ENE 13 20 7 11 1012.7 - 0.0
23/07:00pm 24.8 24.7 17.8 65 4.4 ENE 15 20 8 11 1012.6 - 0.0
23/06:30pm 25.2 25.0 18.6 67 4.2 ENE 17 26 9 14 1012.6 - 0.0
23/06:00pm 25.5 25.4 18.7 66 4.4 NE 17 24 9 13 1012.3 1011.6 0.0
23/05:30pm 26.3 25.8 18.7 63 4.9 ENE 19 28 10 15 1012.0 - 0.0
23/05:00pm 27.2 26.4 18.5 59 5.6 ENE 20 28 11 15 1011.6 - 0.0
23/04:30pm 27.9 27.5 18.9 58 5.8 ENE 19 28 10 15 1011.6 - 0.0
23/04:00pm 28.7 28.8 19.1 56 6.2 ENE 17 24 9 13 1011.4 - 0.0
23/03:30pm 29.5 29.2 19.2 54 6.7 NE 19 28 10 15 1011.5 - 0.0
23/03:00pm 29.3 29.6 18.7 52 6.9 ENE 15 28 8 15 1011.8 1011.2 0.0
23/02:30pm 29.5 29.2 19.2 54 6.7 NE 19 26 10 14 1012.3 - 0.0
23/02:00pm 28.8 28.6 19.4 56 6.1 ENE 19 30 10 16 1012.8 - 0.0
23/01:30pm 29.5 29.0 19.2 54 6.7 NE 20 30 11 16 1013.1 - 0.0
23/01:00pm 29.6 29.5 19.6 55 6.6 ENE 19 30 10 16 1013.4 - 0.0
23/12:30pm 28.7 28.6 18.8 55 6.4 ENE 17 26 9 14 1013.9 - 0.0
23/12:00pm 28.6 29.4 19.0 56 6.2 ENE 13 20 7 11 1014.2 1013.5 0.0
23/11:30am 28.6 28.9 19.5 58 5.9 NE 17 26 9 14 1014.4 - 0.0
23/11:00am 27.9 28.5 19.4 60 5.5 NE 15 20 8 11 1014.6 - 0.0
23/10:30am 28.0 28.3 19.5 60 5.5 ENE 17 26 9 14 1014.8 - 0.0
23/10:00am 27.2 27.8 19.5 62 5.0 ENE 15 22 8 12 1014.9 - 0.0
23/09:30am 27.9 28.1 19.4 60 5.5 NE 17 30 9 16 1014.7 - 0.0
23/09:00am 26.2 26.6 19.8 68 4.2 E 17 22 9 12 1014.7 1014.0 0.0
23/08:30am 24.7 25.9 19.8 74 3.2 E 13 19 7 10 1014.4 - 0.0
23/08:00am 23.9 27.7 20.2 80 2.4 CALM 0 6 0 3 1014.1 - 0.0
23/07:30am 22.7 26.4 20.0 85 1.7 CALM 0 0 0 0 1013.6 - 0.0
23/07:00am 22.1 25.5 19.3 84 1.8 CALM 0 6 0 3 1013.2 - 0.0
23/06:30am 22.4 25.6 19.8 85 1.7 ESE 2 7 1 4 1012.8 - 0.0
23/06:00am 22.7 25.2 20.2 86 1.6 ESE 7 9 4 5 1012.4 1011.7 0.0
23/05:30am 22.6 26.2 19.8 84 1.8 CALM 0 4 0 2 1011.7 - 0.0
23/05:00am 23.1 26.1 20.1 83 1.9 E 4 7 2 4 1011.7 - 0.0
23/04:30am 23.2 25.8 20.0 82 2.1 ESE 6 9 3 5 1011.7 - 0.0
23/04:00am 23.5 27.1 19.8 80 2.4 CALM 0 0 0 0 1011.7 - 0.0
23/03:30am 23.9 26.5 20.0 79 2.5 E 6 7 3 4 1011.8 - 0.0
23/03:00am 24.1 28.0 20.4 80 2.4 CALM 0 6 0 3 1011.9 1011.3 0.0
23/02:30am 23.7 26.9 20.4 82 2.2 E 4 7 2 4 1012.0 - 0.0
23/02:00am 23.2 26.5 20.0 82 2.1 NE 2 7 1 4 1012.5 - 0.0
23/01:30am 22.8 26.1 19.0 79 2.4 CALM 0 0 0 0 1012.5 - 0.0
23/01:00am 23.5 26.6 19.4 78 2.6 ENE 2 7 1 4 1012.9 - 0.0
23/12:30am 23.7 27.0 19.0 75 3.0 CALM 0 0 0 0 1013.2 - 0.0
23/12:00am 24.4 26.7 19.5 74 3.2 ENE 6 9 3 5 1013.5 1012.8 0.0
 
Date/Time
EST
Temp
°C
App
Temp
°C
Dew
Point
Rel
Hum
%
Delta-T
°C
Wind Press
QNH
hPa
Press
MSL
hPa
Rain
since 9 am
mm
Dir
 
Spd
km/h
Gust
km/h
Spd
kts
Gust
kts
22/11:30pm 24.5 27.0 19.8 75 3.0 E 6 9 3 5 1013.6 - 0.0
22/11:00pm 24.7 27.0 19.5 73 3.4 E 6 7 3 4 1013.5 - 0.0
22/10:30pm 24.8 28.1 19.2 71 3.6 CALM 0 0 0 0 1013.6 - 0.0
22/10:00pm 25.7 29.1 19.3 67 4.1 CALM 0 6 0 3 1013.5 - 0.0
22/09:30pm 26.2 28.5 19.8 68 4.2 NE 7 11 4 6 1013.5 - 0.0
22/09:00pm 26.8 28.4 19.9 66 4.5 NE 11 17 6 9 1013.3 1012.6 0.0
22/08:30pm 27.2 29.0 20.3 66 4.5 NE 11 17 6 9 1013.2 - 0.0
22/08:00pm 27.7 29.1 20.3 64 4.9 NNE 13 24 7 13 1012.9 - 0.0
22/07:30pm 28.2 29.2 20.2 62 5.3 NNE 15 26 8 14 1012.5 - 0.0
22/07:00pm 29.4 29.0 18.8 53 6.9 NNE 19 28 10 15 1011.9 - 0.0
22/06:30pm 30.7 30.8 18.4 47 8.0 NNE 15 20 8 11 1011.5 - 0.0
22/06:00pm 33.2 33.1 13.8 31 11.9 NNE 7 11 4 6 1011.1 1010.4 0.0
22/05:30pm 34.2 33.8 13.1 28 12.8 NE 7 13 4 7 1010.9 - 0.0
22/05:00pm 34.6 34.4 12.9 27 13.1 N 6 13 3 7 1010.9 - 0.0
22/04:30pm 33.9 33.3 11.7 26 13.2 NNE 6 11 3 6 1010.9 - 0.0
22/04:00pm 35.5 35.1 13.1 26 13.7 SE 7 13 4 7 1010.9 - 0.0
22/03:30pm 34.8 34.3 11.9 25 13.7 NE 6 17 3 9 1010.9 - 0.0
22/03:00pm 34.6 32.7 11.7 25 13.6 ESE 13 17 7 9 1011.1 1010.4 0.0
22/02:30pm 34.4 33.2 11.5 25 13.6 SSE 9 17 5 9 1011.3 - 0.0
22/02:00pm 35.1 34.0 12.1 25 13.8 NE 9 19 5 10 1011.9 - 0.0
22/01:30pm 34.2 33.3 12.5 27 13.1 NE 9 19 5 10 1012.5 - 0.0
22/01:00pm 33.1 31.5 12.7 29 12.3 E 13 20 7 11 1013.2 - 0.0
22/12:30pm 33.6 32.3 13.6 29 12.2 E 13 22 7 12 1013.8 - 0.0
22/12:00pm 33.7 32.6 14.2 30 12.0 NNE 13 20 7 11 1014.3 1013.6 0.0
22/11:30am 32.4 30.4 12.6 30 11.8 ENE 15 22 8 12 1014.8 - 0.0
22/11:00am 31.9 29.6 11.7 29 11.9 ENE 15 22 8 12 1015.3 - 0.0
22/10:30am 31.7 29.9 11.0 28 12.0 ENE 11 17 6 9 1015.4 - 0.0
22/10:00am 30.1 27.2 9.6 28 11.6 ENE 15 22 8 12 1015.4 - 0.0
22/09:30am 29.7 25.5 8.2 26 11.8 ENE 20 26 11 14 1015.3 - 0.0
22/09:00am 28.2 26.3 9.0 30 10.6 E 9 15 5 8 1015.0 1014.3 0.0
22/08:30am 26.5 26.7 10.6 37 9.0 CALM 0 0 0 0 1014.4 - 0.0
22/08:00am 22.2 22.7 12.7 55 5.4 SW 2 6 1 3 1014.1 - 0.0
22/07:30am 19.0 19.0 12.5 66 3.7 SSW 4 6 2 3 1014.0 - 0.0
22/07:00am 18.7 18.8 11.5 63 4.0 S 2 7 1 4 1013.5 - 0.0
22/06:30am 18.0 17.2 10.9 63 3.9 SSW 6 7 3 4 1013.2 - 0.0
22/06:00am 18.2 17.3 11.5 65 3.7 SSW 7 9 4 5 1013.0 1012.3 0.0
22/05:30am 18.4 17.7 11.9 66 3.6 S 7 7 4 4 1012.9 - 0.0
22/05:00am 18.9 18.2 11.9 64 3.9 S 7 9 4 5 1012.7 - 0.0
22/04:30am 18.4 17.3 11.9 66 3.6 S 9 9 5 5 1012.6 - 0.0
22/04:00am 18.6 18.4 11.9 65 3.7 S 4 7 2 4 1012.5 - 0.0
22/03:30am 18.9 19.4 11.7 63 4.0 CALM 0 0 0 0 1012.7 - 0.0
22/03:00am 19.9 19.9 9.8 52 5.4 CALM 0 0 0 0 1012.7 1012.0 0.0
22/02:00am 20.3 19.4 11.2 56 5.0 S 7 9 4 5 1013.0 - 0.0
22/01:30am 20.3 19.4 11.5 57 4.9 SSW 7 9 4 5 1013.1 - 0.0
22/01:00am 20.5 19.7 11.7 57 4.9 S 7 9 4 5 1013.6 - 0.0
22/12:30am 20.9 20.3 12.3 58 4.9 S 7 9 4 5 1013.8 - 0.0
22/12:00am 21.2 20.6 12.3 57 5.0 SW 7 9 4 5 1013.8 1013.1 0.0
 
Date/Time
EST
Temp
°C
App
Temp
°C
Dew
Point
Rel
Hum
%
Delta-T
°C
Wind Press
QNH
hPa
Press
MSL
hPa
Rain
since 9 am
mm
Dir
 
Spd
km/h
Gust
km/h
Spd
kts
Gust
kts
21/11:30pm 21.3 20.7 12.4 57 5.1 SSW 7 9 4 5 1014.0 - 0.0
21/11:00pm 21.0 20.7 12.7 59 4.7 SSW 6 7 3 4 1014.1 - 0.0
21/10:30pm 21.2 21.4 12.9 59 4.8 SSE 4 6 2 3 1014.0 - 0.0
21/10:00pm 21.7 21.4 12.8 57 5.1 ESE 6 7 3 4 1014.1 - 0.0
21/09:30pm 22.2 23.0 12.5 54 5.5 CALM 0 6 0 3 1014.1 - 0.0
21/09:00pm 23.0 22.7 12.6 52 6.0 SSE 6 7 3 4 1013.9 1013.2 0.0
21/08:30pm 23.6 23.0 12.3 49 6.5 SSE 7 7 4 4 1013.8 - 0.0
21/08:00pm 24.7 24.0 12.0 45 7.3 SE 7 9 4 5 1013.6 - 0.0

Other Formats:

Comma delimited format used in spreadsheet applications
http://www.bom.gov.au/fwo/IDQ60801/IDQ60801.94261.axf

JavaScript Object Notation format (JSON) in row-major order
http://www.bom.gov.au/fwo/IDQ60801/IDQ60801.94261.json